Time;durP1;ratioP1;P1;durP2;ratioP2;P2;SDS_P1;SDS_P2;PMS_P1;PMS_P2;Temp;Humidity;BMP_temperature;BMP_pressure;BME280_temperature;BME280_humidity;BME280_pressure;Samples;Min_cycle;Max_cycle;Signal;HPM_P1;HPM_P2
2022/08/13 00:02:16;;;;;;;21.13;8.83;;;20.40;71.20;;;;;;5073404;28;20025;-86
2022/08/13 00:07:21;;;;;;;18.52;7.93;;;20.40;71.70;;;;;;5061414;28;20119;-86
2022/08/13 00:09:47;;;;;;;18.75;7.78;;;20.30;71.60;;;;;;5072531;28;20489;-85
2022/08/13 00:15:20;;;;;;;15.45;7.35;;;20.30;72.00;;;;;;5071055;28;20036;-85
2022/08/13 00:17:49;;;;;;;19.00;7.93;;;20.30;72.20;;;;;;5068138;28;20028;-84
2022/08/13 00:20:17;;;;;;;18.17;8.35;;;20.20;72.20;;;;;;5077370;28;20044;-87
2022/08/13 00:22:44;;;;;;;18.67;8.55;;;20.20;72.30;;;;;;5078321;28;20023;-86
2022/08/13 00:25:10;;;;;;;22.90;9.70;;;20.20;72.30;;;;;;5075889;28;20029;-85
2022/08/13 00:27:36;;;;;;;27.02;8.13;;;20.20;72.40;;;;;;5077234;28;20111;-86
2022/08/13 00:30:07;;;;;;;21.88;7.72;;;20.10;72.60;;;;;;5084621;28;20029;-87
2022/08/13 00:32:33;;;;;;;27.67;8.15;;;20.10;72.70;;;;;;5087686;28;20021;-88
2022/08/13 00:35:01;;;;;;;15.25;9.10;;;20.10;72.90;;;;;;5077683;28;20024;-88
2022/08/13 00:37:28;;;;;;;19.20;8.90;;;20.10;73.10;;;;;;5078401;28;20028;-87
2022/08/13 00:39:54;;;;;;;17.83;9.18;;;20.10;73.30;;;;;;5077446;28;20021;-89
2022/08/13 00:42:25;;;;;;;20.55;8.82;;;20.10;73.40;;;;;;5078621;28;20028;-90
2022/08/13 00:44:52;;;;;;;25.92;9.50;;;20.10;73.60;;;;;;5079646;28;20044;-88
2022/08/13 00:50:05;;;;;;;22.63;9.13;;;20.00;73.60;;;;;;5083093;28;20118;-90
2022/08/13 00:52:38;;;;;;;22.38;9.13;;;20.00;74.10;;;;;;5086366;28;20044;-90
2022/08/13 00:55:11;;;;;;;31.77;8.80;;;20.00;74.10;;;;;;5079286;28;20078;-89
2022/08/13 00:57:37;;;;;;;20.45;9.13;;;19.90;74.10;;;;;;5077544;28;20031;-88
2022/08/13 01:00:13;;;;;;;21.45;8.55;;;19.90;74.50;;;;;;5080015;28;20028;-89
2022/08/13 01:02:44;;;;;;;22.92;8.00;;;19.90;74.90;;;;;;5077026;28;20024;-88
2022/08/13 01:05:10;;;;;;;20.80;9.98;;;19.90;74.90;;;;;;5078791;28;20096;-88
2022/08/13 01:07:41;;;;;;;18.10;8.48;;;19.90;75.00;;;;;;5079472;28;20028;-89
2022/08/13 01:10:09;;;;;;;17.02;8.70;;;19.90;75.20;;;;;;5090821;28;20023;-89
2022/08/13 01:12:36;;;;;;;24.83;9.13;;;19.90;75.50;;;;;;5080651;28;20036;-89
2022/08/13 01:15:04;;;;;;;31.67;9.98;;;19.90;75.40;;;;;;5074527;28;20070;-86
2022/08/13 01:17:31;;;;;;;28.15;9.73;;;19.90;75.50;;;;;;5079018;28;20020;-88
2022/08/13 01:19:58;;;;;;;19.95;9.38;;;19.80;75.70;;;;;;5087187;28;20025;-88
2022/08/13 01:22:28;;;;;;;16.38;9.25;;;19.80;75.60;;;;;;5079913;28;20044;-87
2022/08/13 01:24:55;;;;;;;22.40;10.00;;;19.90;75.80;;;;;;5072410;28;20544;-88
2022/08/13 01:27:26;;;;;;;16.58;9.32;;;19.80;76.00;;;;;;5072647;28;20059;-89
2022/08/13 01:29:56;;;;;;;18.33;8.85;;;19.80;76.10;;;;;;5074989;28;20066;-87
2022/08/13 01:32:23;;;;;;;30.10;10.23;;;19.70;76.30;;;;;;5076844;28;20024;-89
2022/08/13 01:34:50;;;;;;;20.85;9.73;;;19.70;76.60;;;;;;5073706;28;20028;-85
2022/08/13 01:37:17;;;;;;;20.60;10.53;;;19.70;76.70;;;;;;5071362;28;20020;-86
2022/08/13 01:39:44;;;;;;;18.75;10.13;;;19.70;76.90;;;;;;5072046;28;20048;-86
2022/08/13 01:42:20;;;;;;;20.02;10.30;;;19.70;77.20;;;;;;5075341;28;20036;-85
2022/08/13 01:44:49;;;;;;;23.20;9.68;;;19.60;77.40;;;;;;5088773;28;20013;-84
2022/08/13 01:52:50;;;;;;;25.77;10.23;;;19.70;78.60;;;;;;5075698;28;20039;-86
2022/08/13 01:55:17;;;;;;;;;;;19.60;77.90;;;;;;5076671;28;20036;-86
2022/08/13 01:57:44;;;;;;;24.63;10.23;;;19.60;77.10;;;;;;5072238;28;19912;-85
2022/08/13 02:00:15;;;;;;;17.63;9.77;;;19.50;78.10;;;;;;5079207;28;20486;-87
2022/08/13 02:02:43;;;;;;;25.45;10.27;;;19.50;78.50;;;;;;5079425;28;20021;-88
2022/08/13 02:05:11;;;;;;;21.90;10.23;;;19.50;78.60;;;;;;5110365;28;20024;-89
2022/08/13 02:07:39;;;;;;;23.65;10.52;;;19.50;78.80;;;;;;5083130;28;20020;-89
2022/08/13 02:10:05;;;;;;;19.88;9.68;;;19.50;79.00;;;;;;5081546;28;20381;-86
2022/08/13 02:12:32;;;;;;;19.02;9.93;;;19.60;79.10;;;;;;5077143;28;20064;-85
2022/08/13 02:14:58;;;;;;;23.30;11.30;;;19.60;79.20;;;;;;5091934;28;20454;-87
2022/08/13 02:17:24;;;;;;;19.83;10.00;;;19.60;79.40;;;;;;5075742;28;20063;-85
2022/08/13 02:19:53;;;;;;;29.63;10.68;;;19.60;79.40;;;;;;5076201;28;20253;-85
2022/08/13 02:22:19;;;;;;;23.63;9.63;;;19.60;79.40;;;;;;5075692;28;20032;-87
2022/08/13 02:24:53;;;;;;;27.63;10.13;;;19.70;79.50;;;;;;5075031;28;20091;-86
2022/08/13 02:27:25;;;;;;;23.95;11.43;;;19.70;79.50;;;;;;5074020;28;20115;-86
2022/08/13 02:29:53;;;;;;;16.40;9.35;;;19.70;79.50;;;;;;5075625;28;20017;-86
2022/08/13 02:32:20;;;;;;;25.73;10.02;;;19.70;79.50;;;;;;5074077;28;20024;-86
2022/08/13 02:34:50;;;;;;;19.50;10.05;;;19.70;79.60;;;;;;5075972;28;20021;-86
2022/08/13 02:37:21;;;;;;;25.85;9.95;;;19.70;79.50;;;;;;5081649;28;20536;-85
2022/08/13 02:39:53;;;;;;;22.27;10.68;;;19.70;79.70;;;;;;5080983;28;20033;-85
2022/08/13 02:42:21;;;;;;;24.00;10.18;;;19.70;79.60;;;;;;5078601;28;20052;-88
2022/08/13 02:44:49;;;;;;;23.92;10.10;;;19.70;79.60;;;;;;5075527;28;20108;-87
2022/08/13 02:47:16;;;;;;;21.23;10.13;;;19.70;79.60;;;;;;5075804;28;20020;-87
2022/08/13 02:49:43;;;;;;;22.30;10.60;;;19.80;79.80;;;;;;5075241;28;20091;-86
2022/08/13 02:52:09;;;;;;;23.35;10.73;;;19.80;79.70;;;;;;5075416;28;20100;-86
2022/08/13 02:54:48;;;;;;;26.83;11.00;;;19.90;79.50;;;;;;5074005;28;20029;-87
2022/08/13 02:57:14;;;;;;;23.63;10.02;;;19.90;80.00;;;;;;5073419;28;20470;-86
2022/08/13 02:59:41;;;;;;;24.83;10.55;;;19.90;79.30;;;;;;5073790;28;20029;-87
2022/08/13 03:02:08;;;;;;;24.05;10.77;;;20.00;79.20;;;;;;5074700;28;20032;-87
2022/08/13 03:04:35;;;;;;;22.83;9.95;;;20.10;79.20;;;;;;5076012;28;20036;-87
2022/08/13 03:07:02;;;;;;;28.25;10.38;;;20.20;78.90;;;;;;5075672;28;20031;-86
2022/08/13 03:09:29;;;;;;;29.77;12.15;;;20.20;78.60;;;;;;5074290;28;20418;-86
2022/08/13 03:11:59;;;;;;;26.30;11.35;;;20.30;78.30;;;;;;5060463;28;20060;-86
2022/08/13 03:14:28;;;;;;;30.23;11.13;;;20.40;78.10;;;;;;5087363;28;20021;-87
2022/08/13 03:16:54;;;;;;;24.38;11.45;;;20.50;77.90;;;;;;5101636;28;20028;-87
2022/08/13 03:19:21;;;;;;;21.40;10.80;;;20.60;77.50;;;;;;5075783;28;20016;-85
2022/08/13 03:21:49;;;;;;;21.35;11.13;;;20.70;77.00;;;;;;5078232;28;20496;-86
2022/08/13 03:24:18;;;;;;;28.92;10.63;;;20.90;76.60;;;;;;5077344;28;20465;-86
2022/08/13 03:26:47;;;;;;;24.67;11.45;;;21.00;76.00;;;;;;5078364;28;20048;-86
2022/08/13 03:29:14;;;;;;;29.58;10.40;;;21.10;75.80;;;;;;5075991;28;20059;-85
2022/08/13 03:31:40;;;;;;;;;;;21.10;75.50;;;;;;5075355;28;20547;-85
2022/08/13 03:34:06;;;;;;;28.30;11.95;;;21.20;75.30;;;;;;5074216;28;19905;-87
2022/08/13 03:36:34;;;;;;;21.30;10.93;;;21.20;75.30;;;;;;5072471;28;20040;-84
2022/08/13 03:39:01;;;;;;;27.10;12.75;;;21.30;75.00;;;;;;5075885;28;20412;-88
2022/08/13 03:41:27;;;;;;;22.50;11.30;;;21.50;74.90;;;;;;5076346;28;20028;-88
2022/08/13 03:43:53;;;;;;;33.15;12.30;;;21.50;74.60;;;;;;5064249;28;20055;-89
2022/08/13 03:46:25;;;;;;;21.50;11.27;;;21.60;74.20;;;;;;5071322;28;20021;-89
2022/08/13 03:48:52;;;;;;;27.55;11.65;;;21.70;73.80;;;;;;5075723;28;20021;-89
2022/08/13 03:51:23;;;;;;;23.42;11.70;;;21.80;73.50;;;;;;5074598;28;20032;-85
2022/08/13 03:53:50;;;;;;;21.55;11.13;;;21.90;73.10;;;;;;5072660;28;20033;-85
2022/08/13 03:56:17;;;;;;;29.20;11.55;;;22.00;72.80;;;;;;5074948;28;20056;-87
2022/08/13 03:58:44;;;;;;;22.05;10.82;;;22.10;72.60;;;;;;5073282;28;20152;-84
2022/08/13 04:01:10;;;;;;;23.10;11.70;;;22.10;72.40;;;;;;5072753;28;20486;-86
2022/08/13 04:03:40;;;;;;;26.17;11.50;;;22.30;71.80;;;;;;5076867;28;20177;-84
2022/08/13 04:06:22;;;;;;;22.83;10.20;;;22.40;71.30;;;;;;5076757;28;20099;-84
2022/08/13 04:08:49;;;;;;;23.17;10.48;;;22.50;70.80;;;;;;5078400;28;20723;-84
2022/08/13 04:11:17;;;;;;;;;;;22.50;70.40;;;;;;5081772;28;20032;-85
2022/08/13 04:13:44;;;;;;;30.35;11.18;;;22.60;70.50;;;;;;5076801;28;20366;-84
2022/08/13 04:16:12;;;;;;;24.83;11.02;;;22.70;70.10;;;;;;5073888;28;20036;-85
2022/08/13 04:18:39;;;;;;;18.50;10.00;;;22.80;69.50;;;;;;5073119;28;20135;-85
2022/08/13 04:21:08;;;;;;;18.90;10.65;;;22.80;69.00;;;;;;5071524;28;20115;-85
2022/08/13 04:23:38;;;;;;;21.40;9.82;;;22.90;68.80;;;;;;5073097;28;20024;-85
2022/08/13 04:26:04;;;;;;;19.20;10.30;;;23.10;68.10;;;;;;5074761;28;20051;-88
2022/08/13 04:28:30;;;;;;;23.50;10.60;;;23.20;67.70;;;;;;5073896;28;20033;-88
2022/08/13 04:30:57;;;;;;;19.95;10.13;;;23.20;67.10;;;;;;5074374;28;20028;-87
2022/08/13 04:33:23;;;;;;;19.88;12.05;;;23.30;66.80;;;;;;5107203;28;20016;-89
2022/08/13 04:35:49;;;;;;;24.98;10.98;;;23.30;66.90;;;;;;5074602;28;20027;-88
2022/08/13 04:38:16;;;;;;;24.92;10.90;;;23.40;66.80;;;;;;5075841;28;20025;-89
2022/08/13 04:40:43;;;;;;;23.73;10.10;;;23.60;66.20;;;;;;5074276;28;20032;-88
2022/08/13 04:43:11;;;;;;;25.48;11.07;;;23.70;66.10;;;;;;5074352;28;20086;-88
2022/08/13 04:45:38;;;;;;;19.00;9.18;;;23.80;65.60;;;;;;5072418;28;20036;-88
2022/08/13 04:48:09;;;;;;;19.30;9.93;;;23.80;65.30;;;;;;5074771;28;20012;-87
2022/08/13 04:50:37;;;;;;;19.60;9.95;;;24.00;64.60;;;;;;5073062;28;20052;-89
2022/08/13 04:53:09;;;;;;;25.67;9.52;;;24.60;63.50;;;;;;5080519;28;20020;-87
2022/08/13 04:55:37;;;;;;;22.80;9.48;;;25.40;62.50;;;;;;5082143;28;20016;-87
2022/08/13 04:58:04;;;;;;;19.63;9.25;;;26.10;60.20;;;;;;5081935;28;20030;-84
2022/08/13 05:00:32;;;;;;;10.95;7.35;;;26.80;57.70;;;;;;5077863;28;20021;-89
2022/08/13 05:03:14;;;;;;;13.57;6.85;;;27.20;54.60;;;;;;5074842;28;20043;-84
2022/08/13 05:05:43;;;;;;;19.15;7.93;;;27.80;53.60;;;;;;5073086;28;20453;-84
2022/08/13 05:08:11;;;;;;;8.30;5.47;;;28.50;52.40;;;;;;5074364;28;20025;-86
2022/08/13 05:10:41;;;;;;;9.68;5.55;;;29.40;50.70;;;;;;5073327;28;20100;-87
2022/08/13 05:13:24;;;;;;;14.52;5.82;;;30.30;48.60;;;;;;5072303;28;20074;-84
2022/08/13 05:15:51;;;;;;;9.90;5.15;;;31.10;47.80;;;;;;5071506;28;20020;-84
2022/08/13 05:18:18;;;;;;;;;;;31.30;45.40;;;;;;5075198;28;20573;-85
2022/08/13 05:20:44;;;;;;;7.97;5.05;;;31.60;46.80;;;;;;5072006;28;19948;-85
2022/08/13 05:23:12;;;;;;;6.00;4.50;;;31.80;44.80;;;;;;5073036;28;20029;-84
2022/08/13 05:25:38;;;;;;;8.75;4.68;;;32.40;44.90;;;;;;5073378;28;20434;-83
2022/08/13 05:28:04;;;;;;;8.47;4.00;;;33.20;43.60;;;;;;5070290;28;20086;-85
2022/08/13 05:30:30;;;;;;;6.15;3.85;;;33.20;41.90;;;;;;5072636;28;20027;-85
2022/08/13 05:32:57;;;;;;;8.67;3.93;;;33.00;41.80;;;;;;5074217;28;20477;-86
2022/08/13 05:35:27;;;;;;;8.90;4.28;;;33.20;42.00;;;;;;5073497;28;20353;-86
2022/08/13 05:37:53;;;;;;;6.55;3.63;;;33.60;41.40;;;;;;5071797;28;20029;-86
2022/08/13 05:40:19;;;;;;;8.07;4.80;;;33.70;41.10;;;;;;5062791;28;20033;-85
2022/08/13 05:42:45;;;;;;;10.97;4.70;;;33.60;41.60;;;;;;5069101;28;20452;-86
2022/08/13 05:45:11;;;;;;;15.63;4.87;;;33.90;41.60;;;;;;5073894;28;20146;-87
2022/08/13 05:47:37;;;;;;;9.67;6.30;;;34.70;40.60;;;;;;5076261;28;20028;-90
2022/08/13 05:50:13;;;;;;;13.98;5.90;;;35.40;39.90;;;;;;5063821;28;20064;-88
2022/08/13 05:52:40;;;;;;;13.20;5.70;;;35.50;39.30;;;;;;5057631;28;20021;-89
2022/08/13 05:55:11;;;;;;;18.10;6.38;;;35.80;39.40;;;;;;5056999;28;20459;-88
2022/08/13 05:57:38;;;;;;;19.80;6.65;;;36.70;38.70;;;;;;5055589;28;20029;-90
2022/08/13 06:05:36;;;;;;;16.58;6.88;;;;;;;;;;5072340;28;20120;-89
2022/08/13 06:08:03;;;;;;;14.43;6.25;;;;;;;;;;5057047;28;20047;-87
2022/08/13 06:10:30;;;;;;;21.33;6.82;;;;;;;;;;5071197;28;20024;-88
2022/08/13 06:12:59;;;;;;;;;;;;;;;;;;5078388;28;20076;-90
2022/08/13 06:15:26;;;;;;;17.02;6.05;;;;;;;;;;5116248;28;20261;-87
2022/08/13 06:17:52;;;;;;;23.88;8.07;;;;;;;;;;5072942;28;20040;-89
2022/08/13 06:20:22;;;;;;;13.88;5.20;;;;;;;;;;5072243;28;20052;-87
2022/08/13 06:22:48;;;;;;;10.27;5.72;;;;;;;;;;5092334;28;20035;-88
2022/08/13 06:25:17;;;;;;;7.63;4.78;;;;;;;;;;5083878;28;20029;-89
2022/08/13 06:27:43;;;;;;;9.85;4.68;;;;;;;;;;5087675;28;20067;-89
2022/08/13 06:30:11;;;;;;;9.13;3.97;;;;;;;;;;5066048;28;20052;-88
2022/08/13 06:32:37;;;;;;;9.13;3.47;;;;;;;;;;5073494;28;20202;-86
2022/08/13 06:35:05;;;;;;;14.55;3.90;;;;;;;;;;5078319;28;20055;-88
2022/08/13 06:37:32;;;;;;;11.30;4.18;;;;;;;;;;5073128;28;20023;-86
2022/08/13 06:40:00;;;;;;;9.73;3.80;;;;;;;;;;5074317;28;20031;-85
2022/08/13 06:42:29;;;;;;;11.98;4.00;;;;;;;;;;5072725;28;20033;-87
2022/08/13 06:44:55;;;;;;;8.18;3.20;;;;;;;;;;5069106;28;20538;-92
2022/08/13 06:47:25;;;;;;;4.80;2.97;;;;;;;;;;5088189;28;20035;-91
2022/08/13 06:49:52;;;;;;;4.68;2.83;;;;;;;;;;5097921;28;20016;-89
2022/08/13 06:52:18;;;;;;;;;;;;;;;;;;5098716;28;20032;-88
2022/08/13 06:54:44;;;;;;;9.85;3.50;;;;;;;;;;5088272;28;19915;-88
2022/08/13 06:57:11;;;;;;;6.45;3.55;;;;;;;;;;5080829;28;20033;-86
2022/08/13 06:59:39;;;;;;;10.65;3.90;;;;;;;;;;5081921;28;20031;-90
2022/08/13 07:02:08;;;;;;;10.25;6.20;;;;;;;;;;5078602;28;20033;-87
2022/08/13 07:04:37;;;;;;;8.85;4.38;;;;;;;;;;5078477;28;20055;-87
2022/08/13 07:07:04;;;;;;;10.27;4.38;;;;;;;;;;5078476;28;20024;-86
2022/08/13 07:09:32;;;;;;;10.02;4.80;;;;;;;;;;5091076;28;20027;-90
2022/08/13 07:11:59;;;;;;;11.45;4.97;;;;;;;;;;5095696;28;20042;-87
2022/08/13 07:14:25;;;;;;;6.72;4.38;;;;;;;;;;5095316;28;20020;-90
2022/08/13 07:16:52;;;;;;;11.10;5.57;;;40.90;33.40;;;;;;5073354;28;20040;-90
2022/08/13 07:19:21;;;;;;;5.82;3.10;;;40.90;31.50;;;;;;5060316;28;20025;-90
2022/08/13 07:21:47;;;;;;;7.40;3.72;;;;;;;;;;5076280;28;20021;-88
2022/08/13 07:24:13;;;;;;;11.30;4.50;;;;;;;;;;5073711;28;20115;-85
2022/08/13 07:26:39;;;;;;;;;;;41.40;31.70;;;;;;5076940;28;20037;-88
2022/08/13 07:29:07;;;;;;;7.43;3.30;;;41.80;32.10;;;;;;5074395;28;19908;-88
2022/08/13 07:31:39;;;;;;;6.35;3.63;;;41.90;31.00;;;;;;5079616;28;20101;-92
2022/08/13 07:34:06;;;;;;;10.93;5.47;;;;;;;;;;5075745;28;20056;-90
2022/08/13 07:36:36;;;;;;;10.02;3.30;;;42.00;31.00;;;;;;5069999;28;20031;-86
2022/08/13 07:39:09;;;;;;;8.07;3.35;;;43.00;30.10;;;;;;5083715;28;20024;-92
2022/08/13 07:41:43;;;;;;;6.97;3.42;;;43.20;29.90;;;;;;5071471;28;20509;-89
2022/08/13 07:44:29;;;;;;;5.68;3.17;;;43.10;29.70;;;;;;5068232;28;20036;-88
2022/08/13 07:46:57;;;;;;;8.43;3.55;;;42.90;30.00;;;;;;5066354;28;20050;-91
2022/08/13 07:49:28;;;;;;;7.25;2.70;;;43.70;29.60;;;;;;5061831;28;20402;-92
2022/08/13 07:51:55;;;;;;;8.90;3.35;;;44.60;29.30;;;;;;5061197;28;20025;-92
2022/08/13 07:54:29;;;;;;;5.03;2.47;;;44.90;28.60;;;;;;5057690;28;20219;-91
2022/08/13 07:56:55;;;;;;;6.00;2.90;;;44.70;28.70;;;;;;5044509;28;20033;-90
2022/08/13 07:59:22;;;;;;;6.68;3.03;;;44.60;28.90;;;;;;5056380;28;20033;-92
2022/08/13 08:01:50;;;;;;;7.20;3.20;;;44.70;28.90;;;;;;5038450;28;20069;-90
2022/08/13 08:04:17;;;;;;;7.63;3.00;;;45.00;28.90;;;;;;5039110;28;20033;-90
2022/08/13 08:06:47;;;;;;;6.72;3.15;;;45.10;28.70;;;;;;5055608;28;20033;-89
2022/08/13 08:09:29;;;;;;;9.60;3.08;;;44.70;28.40;;;;;;5058924;28;20119;-90
2022/08/13 08:14:45;;;;;;;8.57;3.28;;;45.30;28.60;;;;;;5071016;28;20426;-91
2022/08/13 08:17:11;;;;;;;6.78;2.88;;;45.10;28.30;;;;;;5060773;28;20025;-88
2022/08/13 08:19:42;;;;;;;7.75;2.97;;;44.70;28.40;;;;;;5093419;28;20036;-89
2022/08/13 08:22:10;;;;;;;8.10;3.25;;;45.00;28.30;;;;;;5079895;28;20048;-91
2022/08/13 08:24:37;;;;;;;7.30;2.97;;;45.20;28.40;;;;;;5084707;28;20102;-90
2022/08/13 08:27:11;;;;;;;8.70;2.97;;;;;;;;;;5077445;28;20045;-90
2022/08/13 08:29:40;;;;;;;9.35;3.35;;;;;;;;;;5050726;28;20036;-90
2022/08/13 08:32:10;;;;;;;17.35;4.00;;;45.60;28.10;;;;;;5065550;28;20052;-91
2022/08/13 08:34:39;;;;;;;8.70;2.72;;;46.90;28.30;;;;;;5061206;28;20033;-93
2022/08/13 08:37:05;;;;;;;9.23;3.38;;;;;;;;;;5059576;28;20055;-90
2022/08/13 08:45:03;;;;;;;8.65;2.80;;;;;;;;;;5080686;28;19923;-88
2022/08/13 08:47:30;;;;;;;9.25;2.67;;;;;;;;;;5063347;28;20032;-89
2022/08/13 08:49:58;;;;;;;9.95;2.35;;;;;;;;;;5061596;28;20024;-90
2022/08/13 08:55:11;;;;;;;10.43;2.75;;;;;;;;;;5053542;28;20032;-86
2022/08/13 08:57:39;;;;;;;8.57;3.22;;;;;;;;;;5067410;28;20033;-90
2022/08/13 09:00:06;;;;;;;9.05;2.88;;;;;;;;;;5067902;28;20036;-92
2022/08/13 09:02:33;;;;;;;7.57;3.50;;;;;;;;;;5073727;28;20036;-90
2022/08/13 09:05:00;;;;;;;8.95;3.20;;;;;;;;;;5071628;28;20019;-90
2022/08/13 09:07:29;;;;;;;7.63;3.10;;;;;;;;;;5084416;28;20059;-93
2022/08/13 09:09:56;;;;;;;5.75;2.88;;;;;;;;;;5090929;28;20032;-91
2022/08/13 09:12:25;;;;;;;12.30;3.78;;;46.70;27.70;;;;;;5073954;28;20449;-90
2022/08/13 09:14:52;;;;;;;7.88;3.00;;;43.20;28.40;;;;;;5086033;28;20009;-92
2022/08/13 09:17:20;;;;;;;10.43;3.25;;;42.40;28.90;;;;;;5083863;28;20024;-92
2022/08/13 09:19:46;;;;;;;9.32;3.40;;;42.20;29.10;;;;;;5073963;28;20419;-90
2022/08/13 09:22:15;;;;;;;;;;;41.70;29.40;;;;;;5082133;28;20059;-93
2022/08/13 09:24:47;;;;;;;10.73;3.30;;;41.30;29.40;;;;;;5074110;28;19904;-90
2022/08/13 09:27:28;;;;;;;8.27;3.90;;;41.40;29.60;;;;;;5090622;28;20048;-91
2022/08/13 09:29:58;;;;;;;14.52;3.90;;;41.90;29.40;;;;;;5094558;28;20068;-86
2022/08/13 09:32:24;;;;;;;6.53;3.10;;;42.30;29.00;;;;;;5088017;28;20056;-92
2022/08/13 09:34:53;;;;;;;13.40;3.47;;;43.00;28.70;;;;;;5086697;28;20053;-90
2022/08/13 09:37:20;;;;;;;9.88;3.70;;;43.20;28.50;;;;;;5073728;28;20092;-89
2022/08/13 09:40:20;;;;;;;9.27;3.58;;;43.70;28.60;;;;;;5092966;28;20028;-90
2022/08/13 09:43:03;;;;;;;8.02;3.15;;;44.00;28.40;;;;;;5093088;28;20112;-95
2022/08/13 09:45:44;;;;;;;10.43;3.30;;;44.40;28.30;;;;;;5094186;28;20111;-90
2022/08/13 09:48:10;;;;;;;9.52;3.60;;;44.40;28.00;;;;;;5077825;28;20052;-91
2022/08/13 09:50:37;;;;;;;5.15;2.78;;;44.70;27.90;;;;;;5088238;28;20029;-91
2022/08/13 09:53:03;;;;;;;7.55;3.20;;;44.50;27.60;;;;;;5089933;28;20028;-88
2022/08/13 09:55:29;;;;;;;5.75;3.33;;;43.30;28.00;;;;;;5088538;28;20044;-90
2022/08/13 09:57:59;;;;;;;;;;;42.60;28.30;;;;;;5080169;28;20444;-90
2022/08/13 10:00:27;;;;;;;11.70;4.03;;;42.00;28.60;;;;;;5078726;28;19908;-88
2022/08/13 10:02:59;;;;;;;5.68;2.97;;;41.30;29.20;;;;;;5078472;28;20025;-88
2022/08/13 10:05:32;;;;;;;9.75;3.83;;;40.80;29.60;;;;;;5081172;28;20020;-91
2022/08/13 10:08:00;;;;;;;7.18;3.80;;;40.80;29.80;;;;;;5081010;28;20108;-91
2022/08/13 10:10:26;;;;;;;9.80;4.00;;;41.10;29.60;;;;;;5113122;28;20173;-87
2022/08/13 10:12:53;;;;;;;7.47;3.10;;;41.30;29.40;;;;;;5074891;28;20024;-87
2022/08/13 10:15:19;;;;;;;6.03;3.10;;;41.80;29.30;;;;;;5074652;28;20100;-92
2022/08/13 10:17:48;;;;;;;6.63;3.05;;;42.70;28.80;;;;;;5081013;28;20382;-91
2022/08/13 10:20:25;;;;;;;10.25;3.85;;;43.00;28.50;;;;;;5079995;28;20046;-88
2022/08/13 10:22:53;;;;;;;7.35;3.15;;;43.00;28.50;;;;;;5077901;28;20021;-89
2022/08/13 10:25:20;;;;;;;5.68;3.50;;;43.00;28.10;;;;;;5077805;28;20048;-90
2022/08/13 10:27:47;;;;;;;10.32;3.70;;;42.40;28.40;;;;;;5075864;28;20066;-88
2022/08/13 10:30:14;;;;;;;9.68;4.05;;;41.50;28.80;;;;;;5078876;28;20017;-89
2022/08/13 10:32:40;;;;;;;7.15;3.40;;;40.60;29.00;;;;;;5083185;28;20035;-89
2022/08/13 10:35:07;;;;;;;9.02;4.40;;;39.30;29.70;;;;;;5068318;28;20017;-90
2022/08/13 10:37:34;;;;;;;;;;;38.00;30.60;;;;;;5061263;28;20029;-87
2022/08/13 10:40:01;;;;;;;9.82;4.45;;;35.80;30.70;;;;;;5081197;28;20357;-87
2022/08/13 10:42:31;;;;;;;9.07;4.40;;;34.90;33.40;;;;;;5086375;28;20032;-89
2022/08/13 10:44:58;;;;;;;7.60;3.97;;;34.20;34.60;;;;;;5085666;28;20025;-90
2022/08/13 10:47:24;;;;;;;8.70;4.00;;;33.60;34.90;;;;;;5108657;28;20086;-87
2022/08/13 10:49:53;;;;;;;9.23;4.07;;;33.00;35.80;;;;;;5106497;28;20087;-89
2022/08/13 10:52:22;;;;;;;8.70;3.95;;;32.30;36.20;;;;;;5121089;28;20039;-92
2022/08/13 10:54:48;;;;;;;10.70;5.05;;;31.60;37.20;;;;;;5106776;28;20160;-88
2022/08/13 10:57:16;;;;;;;8.63;4.28;;;31.20;39.90;;;;;;5109744;28;20035;-91
2022/08/13 10:59:45;;;;;;;13.48;5.88;;;30.80;38.30;;;;;;5098090;28;20024;-91
2022/08/13 11:02:12;;;;;;;9.77;5.03;;;;;;;;;;5104484;28;20054;-87
2022/08/13 11:04:38;;;;;;;7.10;5.25;;;;;;;;;;5135265;28;20076;-88
2022/08/13 11:07:06;;;;;;;7.53;4.55;;;;;;;;;;5133168;28;20039;-81
2022/08/13 11:09:31;;;;;;;8.98;4.60;;;30.50;37.90;;;;;;5129254;28;20037;-89
2022/08/13 11:11:58;;;;;;;11.18;4.50;;;30.40;39.10;;;;;;5105230;28;20103;-88
2022/08/13 11:14:25;;;;;;;12.43;6.03;;;30.30;39.60;;;;;;5115883;28;20107;-92
2022/08/13 11:16:56;;;;;;;10.88;5.10;;;30.40;39.70;;;;;;5094047;28;20028;-91
2022/08/13 11:19:26;;;;;;;10.32;5.22;;;30.40;39.60;;;;;;5071553;28;20029;-89
2022/08/13 11:21:52;;;;;;;6.43;4.72;;;30.50;39.30;;;;;;5080436;28;20028;-88
2022/08/13 11:24:19;;;;;;;8.85;5.22;;;30.30;39.00;;;;;;5074634;28;20039;-89
2022/08/13 11:26:47;;;;;;;7.25;4.43;;;30.00;39.70;;;;;;5071670;28;20044;-89
2022/08/13 11:29:18;;;;;;;10.38;4.57;;;29.80;40.00;;;;;;5069761;28;20021;-91
2022/08/13 11:31:44;;;;;;;11.00;5.43;;;29.50;40.50;;;;;;5072039;28;20027;-90
2022/08/13 11:34:09;;;;;;;10.02;4.47;;;29.30;40.70;;;;;;5063486;28;20096;-90
2022/08/13 11:36:35;;;;;;;8.70;4.95;;;29.40;40.80;;;;;;5072573;28;20430;-87
2022/08/13 11:39:02;;;;;;;8.65;5.10;;;29.50;40.70;;;;;;5055873;28;20047;-87
2022/08/13 11:41:28;;;;;;;11.13;4.60;;;29.60;40.40;;;;;;5102531;28;20439;-88
2022/08/13 11:43:54;;;;;;;7.75;4.57;;;29.50;40.30;;;;;;5066479;28;20036;-88
2022/08/13 11:46:20;;;;;;;10.05;4.30;;;29.50;40.20;;;;;;5062790;28;20017;-83
2022/08/13 11:48:48;;;;;;;11.45;4.30;;;29.50;40.40;;;;;;5062530;28;20443;-84
2022/08/13 11:51:13;;;;;;;;;;;29.50;41.10;;;;;;5070223;28;20387;-85
2022/08/13 11:53:42;;;;;;;8.03;4.53;;;29.60;40.40;;;;;;5055780;28;19919;-88
2022/08/13 11:56:09;;;;;;;9.63;4.95;;;29.60;40.50;;;;;;5102745;28;20020;-91
2022/08/13 11:58:37;;;;;;;6.90;4.57;;;29.50;40.60;;;;;;5083348;28;20023;-93
2022/08/13 12:01:06;;;;;;;9.20;5.63;;;29.40;40.50;;;;;;5086441;28;20129;-93
2022/08/13 12:03:39;;;;;;;14.48;5.50;;;29.30;40.80;;;;;;5087397;28;20004;-93
2022/08/13 12:06:13;;;;;;;7.75;4.80;;;29.30;40.90;;;;;;5074287;28;20037;-93
2022/08/13 12:08:39;;;;;;;7.35;5.00;;;29.30;40.60;;;;;;5088853;28;20025;-91
2022/08/13 12:11:05;;;;;;;10.30;6.45;;;29.20;40.70;;;;;;5072852;28;20112;-92
2022/08/13 12:13:31;;;;;;;7.78;4.55;;;29.30;40.90;;;;;;5065579;28;20059;-89
2022/08/13 12:15:57;;;;;;;7.40;4.63;;;29.30;40.30;;;;;;5076965;28;20136;-88
2022/08/13 12:18:23;;;;;;;9.35;4.50;;;29.20;40.60;;;;;;5076309;28;20029;-91
2022/08/13 12:20:51;;;;;;;7.13;5.25;;;29.20;40.60;;;;;;5077399;28;20834;-89
2022/08/13 12:23:16;;;;;;;12.40;4.72;;;29.10;40.80;;;;;;5089917;28;20024;-88
2022/08/13 12:25:42;;;;;;;9.85;5.13;;;29.20;40.80;;;;;;5080295;28;20050;-88
2022/08/13 12:28:22;;;;;;;7.40;4.97;;;29.20;40.60;;;;;;5064635;28;20529;-89
2022/08/13 12:30:51;;;;;;;9.13;4.97;;;29.20;40.70;;;;;;5074766;28;20029;-89
2022/08/13 12:33:17;;;;;;;7.68;4.75;;;29.10;40.50;;;;;;5076923;28;20028;-89
2022/08/13 12:35:44;;;;;;;8.88;4.60;;;29.00;40.10;;;;;;5080344;28;20107;-90
2022/08/13 12:38:12;;;;;;;10.32;4.28;;;28.80;40.40;;;;;;5106118;28;20032;-90
2022/08/13 12:40:40;;;;;;;12.90;4.40;;;28.70;40.10;;;;;;5075105;28;20068;-90
2022/08/13 12:43:07;;;;;;;7.32;4.20;;;28.60;40.20;;;;;;5074655;28;20082;-89
2022/08/13 12:45:35;;;;;;;10.85;4.53;;;28.70;40.70;;;;;;5070371;28;20021;-91
2022/08/13 12:48:12;;;;;;;7.80;4.95;;;28.80;40.40;;;;;;5066614;28;20108;-89
2022/08/13 12:50:40;;;;;;;13.10;5.05;;;28.70;40.50;;;;;;5069967;28;20085;-90
2022/08/13 12:53:07;;;;;;;8.68;5.95;;;28.70;40.40;;;;;;5086832;28;20043;-89
2022/08/13 12:55:34;;;;;;;12.23;4.63;;;28.80;40.90;;;;;;5086727;28;19996;-91
2022/08/13 12:58:11;;;;;;;8.20;4.57;;;28.70;40.40;;;;;;5078364;28;20316;-91
2022/08/13 13:00:37;;;;;;;7.32;4.22;;;28.70;40.00;;;;;;5089043;28;20082;-89
2022/08/13 13:03:03;;;;;;;6.95;3.92;;;28.70;39.80;;;;;;5094894;28;20068;-90
2022/08/13 13:05:32;;;;;;;7.63;4.93;;;28.60;40.00;;;;;;5090602;28;20031;-90
2022/08/13 13:07:58;;;;;;;10.02;4.88;;;28.70;40.00;;;;;;5107091;28;20020;-89
2022/08/13 13:10:24;;;;;;;12.00;5.18;;;28.70;40.10;;;;;;5074689;28;20021;-90
2022/08/13 13:12:50;;;;;;;12.50;5.00;;;28.80;40.60;;;;;;5074450;28;20028;-89
2022/08/13 13:15:16;;;;;;;9.73;4.57;;;28.90;40.60;;;;;;5076275;28;20039;-89
2022/08/13 13:17:42;;;;;;;7.72;4.82;;;28.90;40.50;;;;;;5076800;28;20478;-91
2022/08/13 13:20:09;;;;;;;12.27;5.17;;;28.90;40.50;;;;;;5076166;28;20020;-88
2022/08/13 13:22:36;;;;;;;13.98;4.75;;;28.90;40.50;;;;;;5076640;28;20702;-90
2022/08/13 13:25:03;;;;;;;7.63;4.45;;;28.90;40.20;;;;;;5077346;28;20020;-89
2022/08/13 13:27:29;;;;;;;;;;;28.90;40.30;;;;;;5076690;28;20045;-90
2022/08/13 13:29:54;;;;;;;12.63;5.23;;;28.90;40.00;;;;;;5077160;28;19904;-89
2022/08/13 13:32:22;;;;;;;9.55;5.05;;;28.80;40.10;;;;;;5079543;28;20424;-88
2022/08/13 13:34:50;;;;;;;;;;;28.70;40.00;;;;;;5066015;28;20036;-89